AirNav   Pilot Hours Calculator
 
 1273 users online  

22CA Commodore Center Seaplane Base
Sausalito, California, USA

GOING TO SAUSALITO?


FAA INFORMATION EFFECTIVE 22 APRIL 2021

Location

FAA Identifier: 22CA
Lat/Long: 37-52-47.7350N 122-30-48.9060W
37-52.795583N 122-30.815100W
37.8799264,-122.5135850
(estimated)
Elevation: 0 ft. / 0 m (estimated)
Variation: 16E (1985)
From city: 2 miles NW of SAUSALITO, CA
Time zone: UTC -7 (UTC -8 during Standard Time)
Zip code: 94965

Seaplane Base Operations

Seaplane Base use: Private use. Permission required prior to landing
Activation date: 04/1949
Control tower: no
ARTCC: OAKLAND CENTER
FSS: OAKLAND FLIGHT SERVICE STATION
Attendance: 0830-DUSK
Pattern altitude: 800 ft. MSL
Wind indicator: yes
Segmented circle: no

Seaplane Base Communications

WX AWOS-AV at 18CN (9 nm SE): 119.925 (415-514-4209)
WX AWOS-3P at DVO (16 nm N): 120.675 (415-897-2236)
WX ASOS at OAK (17 nm SE): PHONE 510-214-1776
WX ASOS at SFO (17 nm SE): PHONE 650-827-8593

Nearby radio navigation aids

VOR radial/distance  VOR name  Freq  Var
SAUr359/1.5SAUSALITO VOR/DME116.2017E
OAKr287/16.6OAKLAND VOR/DME116.8017E
SFOr320/17.0SAN FRANCISCO VOR/DME115.8017E
SGDr183/19.2SCAGGS ISLAND VORTAC112.1017E
PYEr109/20.6POINT REYES VOR/DME113.7017E
CCRr229/24.3CONCORD VOR/DME117.0017E
OSIr322/31.3WOODSIDE VOR/DME113.9017E

Seaplane Base Services

Fuel available: 100LL
FUEL SALE TO TRANSIENTS RESTRICTED TO EMERGENCY ONLY.
Bottled oxygen: NONE
Bulk oxygen: NONE

Runway Information

Runway 11W/29W

Dimensions: 10000 x 2400 ft. / 3048 x 732 m
Surface: water
RUNWAY 11W  RUNWAY 29W
Traffic pattern: leftleft
Obstructions: 50 ft. bridge, 1500 ft. from runway, 200 ft. right of centerline, 30:1 slope to clear150 ft. hill, 3000 ft. from runway, 300 ft. right of centerline, 20:1 slope to clear

Seaplane Base Ownership and Management from official FAA records

Ownership: Privately-owned
Owner: SAN FRANCISCO SEAPLNE TOURS
242 REDWOOD HIGHWAY
MILL VALLEY, CA 94941
Phone 415-332-4843
Manager: AARON SINGER
242 REDWOOD HIGHWAY
MILL VALLEY, CA 94941
Phone 415-332-4843

Seaplane Base Operational Statistics

Aircraft based on the field: 4
Single engine airplanes: 4
    
Aircraft operations: avg 48/week *
100% local general aviation
<1% transient general aviation
* for 12-month period ending 15 January 2001

Additional Remarks

SEAPLANE LANE NOT MARKED.
BE ALERT NUMEROUS DRIFT WOOD PILES & DERELICT/SUNKEN VESSELS (RY 29).
FOR CD CTC NORCAL APCH AT 916-361-0519.

Instrument Procedures

There are no published instrument procedures at 22CA.

Some nearby airports with instrument procedures:

KDVO - Gnoss Field Airport (16 nm N)
KOAK - Metro Oakland International Airport (17 nm SE)
KSFO - San Francisco International Airport (17 nm SE)
KHAF - Half Moon Bay Airport (22 nm S)
KCCR - Buchanan Field Airport (23 nm E)
 
Loc | Ops | Rwys | IFR | FBO | Links
Com | Nav | Svcs | Stats | Notes

Sonoma Jet Center
 
Area around 22CA (Commodore Center Seaplane Base)
 
Road maps at: MapQuest Bing Google
 
Aerial photo
No photo
 
Sectional chart

 
Airport distance calculator
Flying to Commodore Center Seaplane Base? Find the distance to fly.

From to 22CA

Sunrise and sunset
Times for 05-May-2021
 Local
(UTC-7)
 Zulu
(UTC)
Morning civil twilight05:4212:42
Sunrise06:1013:10
Sunset20:0303:03
Evening civil twilight20:3203:32

Current date and time
Zulu (UTC)  05-May-2021 21:49:08
Local (UTC-7)  05-May-2021 14:49:08
 
METAR
KDVO 
16nm N 
052135Z AUTO 13007KT 110V180 10SM CLR 30/10 A2987 RMK AO2
KSFO 
17nm SE 
052056Z 30018KT 10SM FEW060 18/09 A2990 RMK AO2 SLP126 T01830094 58009
KOAK 
18nm SE 
052053Z 30015KT 10SM FEW200 19/10 A2991 RMK AO2 SLP129 T01940100 58008
KHAF 
22nm S 
052135Z AUTO 27009KT 4SM HZ SCT006 12/09 A2997 RMK AO2
KAPC 
22nm NE 
052054Z 21009KT 10SM CLR 27/11 A2988 RMK AO2 SLP111 T02670111 58015
KHWD 
23nm SE 
052054Z 28012KT 10SM CLR 23/12 A2990 RMK AO2 SLP134 T02280122 58009
KO69 
23nm N 
052135Z AUTO 28010KT 10SM CLR 27/12 A2990 RMK A01
KCCR 
23nm E 
052053Z 34007KT 10SM CLR 32/09 A2986 RMK AO2 SLP100 T03170094 58016
KSQL 
25nm SE 
052047Z 33010KT 10SM SKC 23/10 A2991
KPAO 
31nm SE 
052047Z 32013KT 10SM SKC 22/12 A2990
TAF
KSFO 
17nm SE 
051724Z 0518/0624 31008KT P6SM FEW007 FM052000 29018KT P6SM FEW250 FM060100 29015KT P6SM FEW010 FEW200 FM060500 29011KT P6SM SCT008 TEMPO 0611/0614 BKN007 FM061500 28011KT P6SM FEW009 FM062100 27018KT P6SM SKC
KOAK 
18nm SE 
051724Z 0518/0624 27005KT P6SM SKC FM052100 29013KT P6SM SKC FM060100 29011KT P6SM FEW010 FM060400 29008KT P6SM BKN008 FM060800 29006KT P6SM OVC006 FM061600 26007KT P6SM SCT008 FM061700 26009KT P6SM FEW010 FM062100 27015KT P6SM SKC
NOTAMs
Click for the latest NOTAMs
NOTAMs are issued by the DoD/FAA and will open in a separate window not controlled by AirNav.

 

 
 

Would you like to see your business listed on this page?

 If your business provides an interesting product or service to pilots, flight crews, aircraft, or users of the Commodore Center Seaplane Base, you should consider listing it here.  To start the listing process, click on the button below
 
Add a business
 

Other Pages about Commodore Center Seaplane Base

Update a link
 
Copyright © AirNav, LLC. All rights reserved. Privacy Policy  Contact